Time;durP1;ratioP1;P1;durP2;ratioP2;P2;SDS_P1;SDS_P2;PMS_P1;PMS_P2;Temp;Humidity;BMP_temperature;BMP_pressure;BME280_temperature;BME280_humidity;BME280_pressure;Samples;Min_cycle;Max_cycle;Signal;HPM_P1;HPM_P2
2022/11/20 00:00:45;;;;;;;28.98;16.33;;;;;;;;;;5021714;28;20022;-74
2022/11/20 00:03:11;;;;;;;26.20;14.45;;;;;;;;;;5021126;28;20021;-73
2022/11/20 00:05:37;;;;;;;23.73;14.30;;;;;;;;;;5028167;28;20065;-74
2022/11/20 00:08:03;;;;;;;25.70;14.07;;;;;;;;;;5028937;28;20636;-73
2022/11/20 00:10:29;;;;;;;24.15;14.45;;;;;;;;;;5039515;28;20067;-74
2022/11/20 00:12:55;;;;;;;22.50;14.65;;;;;;;;;;5052552;28;20032;-73
2022/11/20 00:15:21;;;;;;;21.58;14.27;;;;;;;;;;5052243;28;20374;-72
2022/11/20 00:17:47;;;;;;;24.02;13.95;;;;;;;;;;5050882;28;20037;-73
2022/11/20 00:20:13;;;;;;;25.33;14.13;;;;;;;;;;5051670;28;20021;-73
2022/11/20 00:22:39;;;;;;;21.83;14.10;;;;;;;;;;5052841;28;20042;-73
2022/11/20 00:25:05;;;;;;;24.83;14.93;;;;;;;;;;5051423;28;20238;-72
2022/11/20 00:27:31;;;;;;;28.52;15.98;;;;;;;;;;5052191;28;20104;-73
2022/11/20 00:29:57;;;;;;;26.52;16.45;;;;;;;;;;5051511;28;20583;-73
2022/11/20 00:32:23;;;;;;;23.15;14.52;;;;;;;;;;5052236;28;20027;-73
2022/11/20 00:34:49;;;;;;;25.85;16.15;;;;;;;;;;5048615;28;20037;-74
2022/11/20 00:37:15;;;;;;;21.98;14.13;;;;;;;;;;5050589;28;20095;-74
2022/11/20 00:39:41;;;;;;;24.88;15.00;;;;;;;;;;5052020;28;20025;-73
2022/11/20 00:42:07;;;;;;;23.60;13.95;;;;;;;;;;5051480;28;20362;-72
2022/11/20 00:44:33;;;;;;;24.88;14.60;;;;;;;;;;5034661;28;20107;-71
2022/11/20 00:46:59;;;;;;;29.65;16.60;;;;;;;;;;5033360;28;20032;-72
2022/11/20 00:49:25;;;;;;;24.20;13.70;;;;;;;;;;5052256;28;20541;-72
2022/11/20 00:51:51;;;;;;;11.65;7.75;;;;;;;;;;5048596;28;20029;-73
2022/11/20 00:54:17;;;;;;;14.00;8.10;;;;;;;;;;5041104;28;20102;-73
2022/11/20 00:56:43;;;;;;;15.40;8.23;;;;;;;;;;5044673;28;20045;-74
2022/11/20 00:59:10;;;;;;;13.00;5.53;;;;;;;;;;5049583;28;20021;-71
2022/11/20 01:01:36;;;;;;;7.68;5.32;;;;;;;;;;5051854;28;20109;-72
2022/11/20 01:04:02;;;;;;;8.48;4.88;;;;;;;;;;5050128;28;20098;-72
2022/11/20 01:06:33;;;;;;;6.70;4.10;;;;;;;;;;5051947;28;20025;-72
2022/11/20 01:08:59;;;;;;;5.57;4.13;;;;;;;;;;5050444;28;20032;-72
2022/11/20 01:11:36;;;;;;;6.88;3.67;;;;;;;;;;5050617;28;20042;-73
2022/11/20 01:14:03;;;;;;;8.18;3.83;;;;;;;;;;5039261;28;20044;-72
2022/11/20 01:16:31;;;;;;;8.00;3.78;;;;;;;;;;5048429;28;20035;-72
2022/11/20 01:18:58;;;;;;;5.30;3.33;;;;;;;;;;5051056;28;20032;-73
2022/11/20 01:21:28;;;;;;;6.35;3.33;;;;;;;;;;5050606;28;20060;-73
2022/11/20 01:23:54;;;;;;;3.80;3.10;;;;;;;;;;5049551;28;20039;-72
2022/11/20 01:26:22;;;;;;;3.63;2.50;;;;;;;;;;5032924;28;20466;-73
2022/11/20 01:28:48;;;;;;;3.80;2.47;;;;;;;;;;5030065;28;20029;-73
2022/11/20 01:31:16;;;;;;;2.72;2.33;;;;;;;;;;5051194;28;20024;-73
2022/11/20 01:33:43;;;;;;;3.55;2.45;;;;;;;;;;5049576;28;20476;-73
2022/11/20 01:36:09;;;;;;;4.18;2.25;;;;;;;;;;5048003;28;20078;-72
2022/11/20 01:38:35;;;;;;;4.93;2.85;;;;;;;;;;5051743;28;20500;-73
2022/11/20 01:41:01;;;;;;;3.88;2.45;;;;;;;;;;5049490;28;20033;-72
2022/11/20 01:43:28;;;;;;;5.53;2.40;;;;;;;;;;5047380;28;20529;-72
2022/11/20 01:46:01;;;;;;;4.13;2.00;;;;;;;;;;5046663;28;20037;-72
2022/11/20 01:48:33;;;;;;;4.03;2.20;;;;;;;;;;5051425;28;20019;-72
2022/11/20 01:51:00;;;;;;;6.28;2.28;;;;;;;;;;5036593;28;20021;-73
2022/11/20 01:53:29;;;;;;;3.92;2.60;;;;;;;;;;5050744;28;20096;-73
2022/11/20 01:55:57;;;;;;;6.38;2.40;;;;;;;;;;5049671;28;20496;-73
2022/11/20 01:58:26;;;;;;;3.53;2.40;;;;;;;;;;5051018;28;20025;-72
2022/11/20 02:00:52;;;;;;;3.17;2.47;;;;;;;;;;5049527;28;20036;-72
2022/11/20 02:03:19;;;;;;;4.53;2.70;;;;;;;;;;5050326;28;20021;-72
2022/11/20 02:05:58;;;;;;;3.85;2.40;;;;;;;;;;5049916;28;20036;-73
2022/11/20 02:08:24;;;;;;;3.40;2.63;;;;;;;;;;5051569;28;20029;-72
2022/11/20 02:10:51;;;;;;;3.67;2.67;;;;;;;;;;5049451;28;20124;-73
2022/11/20 02:16:02;;;;;;;3.25;2.40;;;;;;;;;;5046578;28;20036;-73
2022/11/20 02:18:29;;;;;;;5.18;3.08;;;;;;;;;;5047135;28;20028;-73
2022/11/20 02:20:59;;;;;;;3.30;2.75;;;;;;;;;;5049780;28;20424;-73
2022/11/20 02:23:25;;;;;;;;;;;;;;;;;;5052254;28;20021;-73
2022/11/20 02:25:51;;;;;;;3.05;2.70;;;;;;;;;;5050799;28;19913;-73
2022/11/20 02:28:18;;;;;;;4.15;2.38;;;;;;;;;;5055411;28;20033;-73
2022/11/20 02:30:44;;;;;;;4.38;2.25;;;;;;;;;;5054500;28;20043;-73
2022/11/20 02:33:10;;;;;;;5.78;2.67;;;;;;;;;;5054783;28;20025;-72
2022/11/20 02:35:36;;;;;;;3.97;2.40;;;;;;;;;;5052650;28;20418;-73
2022/11/20 02:38:03;;;;;;;4.70;2.30;;;;;;;;;;5054197;28;20058;-72
2022/11/20 02:40:29;;;;;;;2.95;2.13;;;;;;;;;;5053594;28;20028;-73
2022/11/20 02:42:56;;;;;;;4.50;2.28;;;;;;;;;;5054312;28;20025;-73
2022/11/20 02:45:22;;;;;;;1.95;1.77;;;;;;;;;;5053966;28;20485;-73
2022/11/20 02:47:48;;;;;;;4.28;2.10;;;;;;;;;;5053832;28;20488;-74
2022/11/20 02:50:14;;;;;;;3.50;2.22;;;;;;;;;;5054119;28;20021;-73
2022/11/20 02:52:40;;;;;;;3.30;1.98;;;;;;;;;;5036163;28;20032;-73
2022/11/20 02:55:07;;;;;;;2.65;2.30;;;;;;;;;;5053662;28;20027;-73
2022/11/20 02:57:33;;;;;;;4.13;2.55;;;;;;;;;;5052967;28;20388;-72
2022/11/20 02:59:59;;;;;;;5.13;2.20;;;;;;;;;;5049751;28;20025;-73
2022/11/20 03:02:24;;;;;;;3.95;2.53;;;;;;;;;;5054425;28;20029;-72
2022/11/20 03:04:50;;;;;;;4.22;2.40;;;;;;;;;;5053854;28;20115;-73
2022/11/20 03:07:16;;;;;;;4.15;2.38;;;;;;;;;;5056383;28;20096;-73
2022/11/20 03:09:42;;;;;;;3.97;2.72;;;;;;;;;;5053881;28;20045;-73
2022/11/20 03:12:08;;;;;;;3.28;2.22;;;;;;;;;;5058036;28;20443;-73
2022/11/20 03:14:34;;;;;;;5.45;2.53;;;;;;;;;;5060051;28;20043;-72
2022/11/20 03:17:00;;;;;;;4.40;2.38;;;;;;;;;;5060828;28;20054;-72
2022/11/20 03:19:26;;;;;;;2.78;1.98;;;;;;;;;;5051139;28;20025;-72
2022/11/20 03:21:53;;;;;;;6.90;3.00;;;;;;;;;;5046454;28;20086;-72
2022/11/20 03:24:19;;;;;;;3.30;2.50;;;;;;;;;;5054500;28;20063;-73
2022/11/20 03:26:44;;;;;;;3.72;2.50;;;;;;;;;;5052883;28;20076;-74
2022/11/20 03:29:10;;;;;;;3.35;2.58;;;;;;;;;;5053869;28;20074;-73
2022/11/20 03:31:41;;;;;;;5.60;2.85;;;;;;;;;;5054156;28;20481;-72
2022/11/20 03:34:08;;;;;;;3.95;3.15;;;;;;;;;;5050955;28;20112;-72
2022/11/20 03:36:35;;;;;;;3.92;2.63;;;;;;;;;;5045588;28;20106;-72
2022/11/20 03:39:01;;;;;;;4.35;3.13;;;;;;;;;;5053511;28;20036;-73
2022/11/20 03:41:28;;;;;;;3.47;2.40;;;;;;;;;;5052879;28;20025;-72
2022/11/20 03:43:55;;;;;;;5.60;2.97;;;;;;;;;;5053397;28;20151;-71
2022/11/20 03:46:21;;;;;;;6.47;3.00;;;;;;;;;;5052654;28;20535;-73
2022/11/20 03:48:48;;;;;;;7.30;3.40;;;;;;;;;;5052971;28;20029;-74
2022/11/20 03:51:18;;;;;;;7.07;3.72;;;;;;;;;;5054119;28;20079;-72
2022/11/20 03:53:45;;;;;;;7.47;3.80;;;;;;;;;;5054190;28;20098;-74
2022/11/20 03:56:11;;;;;;;5.82;3.35;;;;;;;;;;5053093;28;20096;-72
2022/11/20 03:58:41;;;;;;;6.35;3.58;;;;;;;;;;5052534;28;20040;-72
2022/11/20 04:01:18;;;;;;;5.00;3.50;;;;;;;;;;5052287;28;20021;-73
2022/11/20 04:03:44;;;;;;;5.72;3.17;;;;;;;;;;5053775;28;20427;-74
2022/11/20 04:06:11;;;;;;;5.32;3.70;;;;;;;;;;5053006;28;20063;-74
2022/11/20 04:08:37;;;;;;;7.97;3.95;;;;;;;;;;5034045;28;20029;-73
2022/11/20 04:11:17;;;;;;;5.93;3.72;;;;;;;;;;5029974;28;20076;-73
2022/11/20 04:13:46;;;;;;;4.20;3.42;;;;;;;;;;5032331;28;20116;-74
2022/11/20 04:16:12;;;;;;;5.00;3.60;;;;;;;;;;5033054;28;20036;-73
2022/11/20 04:18:38;;;;;;;4.65;3.50;;;;;;;;;;5033564;28;20362;-73
2022/11/20 04:21:05;;;;;;;6.15;3.58;;;;;;;;;;5031953;28;20052;-74
2022/11/20 04:23:31;;;;;;;6.57;3.78;;;;;;;;;;5033228;28;20097;-73
2022/11/20 04:26:05;;;;;;;6.20;3.75;;;;;;;;;;5032233;28;20509;-72
2022/11/20 04:28:31;;;;;;;5.50;3.67;;;;;;;;;;5033440;28;20427;-72
2022/11/20 04:31:10;;;;;;;6.22;4.03;;;;;;;;;;5024327;28;20435;-73
2022/11/20 04:33:37;;;;;;;5.20;3.90;;;;;;;;;;5027124;28;20014;-73
2022/11/20 04:36:23;;;;;;;7.25;4.13;;;;;;;;;;5021140;28;20659;-73
2022/11/20 04:38:53;;;;;;;6.22;4.25;;;;;;;;;;5023286;28;20442;-73
2022/11/20 04:41:19;;;;;;;6.90;3.53;;;;;;;;;;5025356;28;20365;-73
2022/11/20 04:43:49;;;;;;;5.68;3.85;;;;;;;;;;5024703;28;20463;-74
2022/11/20 04:46:15;;;;;;;;;;;;;;;;;;5025604;28;20026;-73
2022/11/20 04:48:41;;;;;;;5.13;2.78;;;;;;;;;;5021235;28;19992;-73
2022/11/20 04:51:07;;;;;;;5.10;2.72;;;;;;;;;;5021362;28;20029;-73
2022/11/20 04:53:33;;;;;;;7.63;3.53;;;;;;;;;;5025485;28;20104;-73
2022/11/20 04:56:00;;;;;;;6.45;3.65;;;;;;;;;;5022848;28;20033;-73
2022/11/20 04:58:26;;;;;;;4.65;3.30;;;;;;;;;;5023136;28;20029;-73
2022/11/20 05:00:52;;;;;;;4.00;2.97;;;;;;;;;;5026625;28;20036;-73
2022/11/20 05:03:18;;;;;;;4.68;2.88;;;;;;;;;;5024011;28;20045;-72
2022/11/20 05:05:44;;;;;;;5.68;3.47;;;;;;;;;;5027281;28;20068;-74
2022/11/20 05:08:09;;;;;;;7.05;3.60;;;;;;;;;;5023729;28;20529;-72
2022/11/20 05:10:35;;;;;;;4.93;3.35;;;;;;;;;;5035003;28;20049;-74
2022/11/20 05:13:01;;;;;;;6.05;2.95;;;;;;;;;;5039967;28;20155;-72
2022/11/20 05:15:27;;;;;;;8.93;3.15;;;;;;;;;;5044320;28;20458;-72
2022/11/20 05:17:53;;;;;;;3.83;3.13;;;;;;;;;;5043236;28;20100;-72
2022/11/20 05:20:20;;;;;;;8.77;3.60;;;;;;;;;;5040465;28;20025;-72
2022/11/20 05:22:46;;;;;;;5.47;3.17;;;;;;;;;;5046158;28;20025;-72
2022/11/20 05:25:12;;;;;;;4.40;3.30;;;;;;;;;;5051823;28;20051;-73
2022/11/20 05:27:38;;;;;;;4.78;2.78;;;;;;;;;;5051993;28;20071;-73
2022/11/20 05:30:05;;;;;;;4.10;2.85;;;;;;;;;;5049986;28;20644;-73
2022/11/20 05:32:31;;;;;;;6.38;3.40;;;;;;;;;;5051871;28;20087;-73
2022/11/20 05:34:57;;;;;;;5.18;3.40;;;;;;;;;;5050402;28;20025;-73
2022/11/20 05:37:23;;;;;;;7.13;3.17;;;;;;;;;;5050811;28;20461;-72
2022/11/20 05:39:49;;;;;;;6.82;3.03;;;;;;;;;;5050456;28;20096;-74
2022/11/20 05:42:30;;;;;;;4.05;3.05;;;;;;;;;;5051155;28;20132;-73
2022/11/20 05:44:56;;;;;;;3.45;2.78;;;;;;;;;;5034849;28;20029;-72
2022/11/20 05:47:22;;;;;;;5.45;3.20;;;;;;;;;;5051781;28;20458;-72
2022/11/20 05:49:48;;;;;;;4.97;3.10;;;;;;;;;;5050160;28;20027;-73
2022/11/20 05:52:14;;;;;;;5.25;2.85;;;;;;;;;;5050140;28;20425;-72
2022/11/20 05:54:40;;;;;;;4.60;2.80;;;;;;;;;;5050105;28;20029;-73
2022/11/20 05:57:06;;;;;;;3.47;2.70;;;;;;;;;;5050034;28;20017;-73
2022/11/20 05:59:32;;;;;;;3.63;2.90;;;;;;;;;;5051137;28;20025;-72
2022/11/20 06:01:58;;;;;;;4.78;2.40;;;;;;;;;;5049066;28;20032;-72
2022/11/20 06:04:24;;;;;;;6.63;3.42;;;;;;;;;;5051303;28;20036;-72
2022/11/20 06:06:50;;;;;;;3.25;2.75;;;;;;;;;;5050180;28;20052;-72
2022/11/20 06:09:16;;;;;;;4.15;2.40;;;;;;;;;;5050495;28;20061;-71
2022/11/20 06:11:42;;;;;;;3.45;2.80;;;;;;;;;;5049324;28;20052;-72
2022/11/20 06:14:08;;;;;;;4.20;2.65;;;;;;;;;;5050431;28;20025;-73
2022/11/20 06:16:34;;;;;;;4.78;2.80;;;;;;;;;;5051088;28;20154;-72
2022/11/20 06:19:00;;;;;;;3.05;2.47;;;;;;;;;;5050377;28;20407;-72
2022/11/20 06:21:26;;;;;;;3.42;2.17;;;;;;;;;;5050739;28;20096;-72
2022/11/20 06:23:53;;;;;;;3.92;2.70;;;;;;;;;;5049331;28;20151;-73
2022/11/20 06:26:21;;;;;;;4.65;2.50;;;;;;;;;;5049718;28;20393;-72
2022/11/20 06:28:47;;;;;;;4.68;2.42;;;;;;;;;;5050632;28;20104;-73
2022/11/20 06:31:14;;;;;;;2.83;2.35;;;;;;;;;;5050329;28;20068;-72
2022/11/20 06:33:40;;;;;;;3.33;2.50;;;;;;;;;;5050805;28;20154;-72
2022/11/20 06:36:07;;;;;;;3.17;2.20;;;;;;;;;;5047565;28;20056;-72
2022/11/20 06:38:33;;;;;;;3.85;2.10;;;;;;;;;;5051079;28;20115;-72
2022/11/20 06:40:59;;;;;;;3.53;2.63;;;;;;;;;;5050186;28;20044;-71
2022/11/20 06:43:25;;;;;;;2.95;2.22;;;;;;;;;;5050975;28;20021;-72
2022/11/20 06:45:55;;;;;;;2.20;2.00;;;;;;;;;;5048753;28;20052;-71
2022/11/20 06:48:22;;;;;;;4.25;2.00;;;;;;;;;;5051054;28;20029;-72
2022/11/20 06:50:48;;;;;;;2.97;2.00;;;;;;;;;;5049053;28;20374;-72
2022/11/20 06:53:14;;;;;;;2.58;2.00;;;;;;;;;;5050766;28;20478;-72
2022/11/20 06:55:44;;;;;;;3.58;2.03;;;;;;;;;;5048149;28;20078;-72
2022/11/20 06:58:10;;;;;;;;;;;;;;;;;;5050419;28;20549;-73
2022/11/20 07:00:36;;;;;;;3.03;2.10;;;;;;;;;;5047937;28;19999;-72
2022/11/20 07:03:05;;;;;;;2.92;2.10;;;;;;;;;;5049793;28;20029;-71
2022/11/20 07:05:31;;;;;;;2.37;2.07;;;;;;;;;;5049892;28;20087;-72
2022/11/20 07:07:58;;;;;;;3.20;2.30;;;;;;;;;;5049482;28;20267;-73
2022/11/20 07:10:24;;;;;;;4.13;2.30;;;;;;;;;;5052770;28;20124;-73
2022/11/20 07:12:50;;;;;;;4.65;2.10;;;;;;;;;;5035052;28;20493;-73
2022/11/20 07:15:17;;;;;;;3.67;2.15;;;;;;;;;;5046124;28;20040;-73
2022/11/20 07:17:43;;;;;;;3.35;2.05;;;;;;;;;;5046260;28;20474;-74
2022/11/20 07:20:09;;;;;;;2.15;1.95;;;;;;;;;;5046658;28;20025;-73
2022/11/20 07:22:35;;;;;;;3.95;2.00;;;;;;;;;;5056273;28;20029;-73
2022/11/20 07:25:02;;;;;;;2.30;1.80;;;;;;;;;;5050162;28;20145;-72
2022/11/20 07:27:28;;;;;;;4.00;1.98;;;;;;;;;;5053184;28;20492;-72
2022/11/20 07:29:54;;;;;;;1.98;1.83;;;;;;;;;;5047708;28;20028;-73
2022/11/20 07:32:20;;;;;;;2.58;1.88;;;;;;;;;;5049969;28;20041;-73
2022/11/20 07:34:46;;;;;;;5.13;1.95;;;;;;;;;;5052447;28;20029;-74
2022/11/20 07:37:12;;;;;;;3.10;1.98;;;;;;;;;;5053156;28;20021;-72
2022/11/20 07:39:38;;;;;;;2.28;1.80;;;;;;;;;;5047300;28;20036;-72
2022/11/20 07:42:04;;;;;;;2.45;1.85;;;;;;;;;;5045318;28;20184;-73
2022/11/20 07:44:30;;;;;;;4.30;2.05;;;;;;;;;;5055103;28;20033;-72
2022/11/20 07:46:56;;;;;;;2.45;1.45;;;;;;;;;;5052008;28;20017;-84
2022/11/20 07:49:22;;;;;;;4.38;2.40;;;;;;;;;;5031201;28;20030;-77
2022/11/20 07:51:50;;;;;;;3.97;1.90;;;;;;;;;;5050979;28;20029;-73
2022/11/20 07:54:16;;;;;;;2.50;1.90;;;;;;;;;;5049286;28;20116;-71
2022/11/20 07:56:42;;;;;;;3.38;2.10;;;;;;;;;;5051320;28;20422;-73
2022/11/20 07:59:08;;;;;;;3.53;1.90;;;;;;;;;;5051363;28;20029;-70
2022/11/20 08:01:34;;;;;;;3.35;1.85;;;;;;;;;;5045562;28;20064;-70
2022/11/20 08:04:00;;;;;;;2.13;1.50;;;;;;;;;;5046429;28;20481;-72
2022/11/20 08:06:26;;;;;;;2.20;1.80;;;;;;;;;;5044417;28;20134;-72
2022/11/20 08:08:52;;;;;;;2.60;1.42;;;;;;;;;;5051158;28;20032;-72
2022/11/20 08:14:12;;;;;;;3.90;1.90;;;;;;;;;;5049842;28;20028;-71
2022/11/20 08:16:38;;;;;;;3.63;1.70;;;;;;;;;;5050064;28;20490;-71
2022/11/20 08:19:04;;;;;;;2.33;1.58;;;;;;;;;;5030379;28;20086;-70
2022/11/20 08:21:31;;;;;;;1.70;1.35;;;;;;;;;;5048086;28;20108;-71
2022/11/20 08:23:58;;;;;;;2.60;1.52;;;;;;;;;;5048644;28;20021;-77
2022/11/20 08:26:24;;;;;;;1.27;1.17;;;;;;;;;;5049523;28;20055;-80
2022/11/20 08:28:54;;;;;;;3.55;1.70;;;;;;;;;;5051320;28;20040;-72
2022/11/20 08:31:20;;;;;;;2.75;1.58;;;;;;;;;;5050498;28;20056;-72
2022/11/20 08:33:46;;;;;;;1.73;1.30;;;;;;;;;;5051360;28;20071;-73
2022/11/20 08:36:12;;;;;;;1.63;1.30;;;;;;;;;;5050808;28;20033;-79
2022/11/20 08:38:38;;;;;;;3.03;1.65;;;;;;;;;;5053143;28;20023;-86
2022/11/20 08:41:24;;;;;;;1.50;1.10;;;;;;;;;;5033503;28;20127;-84
2022/11/20 08:43:50;;;;;;;3.72;1.15;;;;;;;;;;5052811;28;20099;-82
2022/11/20 08:46:16;;;;;;;1.70;1.33;;;;;;;;;;5042283;28;20033;-69
2022/11/20 08:48:43;;;;;;;1.52;1.20;;;;;;;;;;5050574;28;20025;-67
2022/11/20 08:51:09;;;;;;;2.95;1.30;;;;;;;;;;5043337;28;20024;-69
2022/11/20 08:53:35;;;;;;;2.40;1.63;;;;;;;;;;5050175;28;20035;-69
2022/11/20 08:56:01;;;;;;;3.40;1.30;;;;;;;;;;5042549;28;20025;-68
2022/11/20 08:58:27;;;;;;;1.48;1.02;;;;;;;;;;5042347;28;20075;-69
2022/11/20 09:00:53;;;;;;;1.65;1.33;;;;;;;;;;5042055;28;20036;-69
2022/11/20 09:03:19;;;;;;;1.63;1.05;;;;;;;;;;5041120;28;20029;-69
2022/11/20 09:05:45;;;;;;;2.00;1.13;;;;;;;;;;5044819;28;20121;-70
2022/11/20 09:08:11;;;;;;;2.95;1.10;;;;;;;;;;5043669;28;20075;-70
2022/11/20 09:10:39;;;;;;;1.48;1.08;;;;;;;;;;5038544;28;20466;-70
2022/11/20 09:13:05;;;;;;;1.02;0.93;;;;;;;;;;5049741;28;20067;-70
2022/11/20 09:15:32;;;;;;;0.80;0.80;;;;;;;;;;5041388;28;20036;-70
2022/11/20 09:17:59;;;;;;;1.90;1.10;;;;;;;;;;5049606;28;20484;-70
2022/11/20 09:20:26;;;;;;;1.15;1.05;;;;;;;;;;5035867;28;20018;-72
2022/11/20 09:22:52;;;;;;;2.50;0.93;;;;;;;;;;5050016;28;20021;-70
2022/11/20 09:25:18;;;;;;;1.45;1.08;;;;;;;;;;5043624;28;20339;-67
2022/11/20 09:27:45;;;;;;;1.65;1.27;;;;;;;;;;5046567;28;20673;-67
2022/11/20 09:30:12;;;;;;;1.05;0.70;;;;;;;;;;5047985;28;20033;-68
2022/11/20 09:32:42;;;;;;;1.25;1.00;;;;;;;;;;5050365;28;20017;-68
2022/11/20 09:35:08;;;;;;;1.38;0.70;;;;;;;;;;5042155;28;20799;-68
2022/11/20 09:37:34;;;;;;;1.58;0.68;;;;;;;;;;5050092;28;20032;-68
2022/11/20 09:40:00;;;;;;;2.03;1.10;;;;;;;;;;5043201;28;20021;-68
2022/11/20 09:42:45;;;;;;;2.33;1.00;;;;;;;;;;5050525;28;20043;-69
2022/11/20 09:45:16;;;;;;;0.80;0.65;;;;;;;;;;5036499;28;20056;-68
2022/11/20 09:47:51;;;;;;;0.88;0.52;;;;;;;;;;5050635;28;20158;-68
2022/11/20 09:50:24;;;;;;;0.73;0.55;;;;;;;;;;5046851;28;20084;-68
2022/11/20 09:53:00;;;;;;;1.02;0.70;;;;;;;;;;5049507;28;20075;-68
2022/11/20 09:55:26;;;;;;;1.17;0.80;;;;;;;;;;5044133;28;20032;-68
2022/11/20 09:57:52;;;;;;;2.53;0.80;;;;;;;;;;5048564;28;20024;-68
2022/11/20 10:00:23;;;;;;;1.60;0.70;;;;;;;;;;5044755;28;20381;-67
2022/11/20 10:03:12;;;;;;;1.38;0.52;;;;;;;;;;5049765;28;20032;-67
2022/11/20 10:05:49;;;;;;;1.10;0.65;;;;;;;;;;5046116;28;20067;-67
2022/11/20 10:08:20;;;;;;;1.52;0.57;;;;;;;;;;5050015;28;20036;-67
2022/11/20 10:10:53;;;;;;;1.67;0.70;;;;;;;;;;5044391;28;20077;-67
2022/11/20 10:13:38;;;;;;;1.52;0.93;;;;;;;;;;5049737;28;20025;-67
2022/11/20 10:16:09;;;;;;;2.05;0.60;;;;;;;;;;5045816;28;20104;-68
2022/11/20 10:18:45;;;;;;;1.35;0.80;;;;;;;;;;5049206;28;20027;-68
2022/11/20 10:21:17;;;;;;;1.75;0.95;;;;;;;;;;5053045;28;20537;-67
2022/11/20 10:23:49;;;;;;;1.10;0.70;;;;;;;;;;5051695;28;20032;-67
2022/11/20 10:26:23;;;;;;;1.58;0.90;;;;;;;;;;5048015;28;20052;-68
2022/11/20 10:29:07;;;;;;;0.60;0.60;;;;;;;;;;5030427;28;20377;-68
2022/11/20 10:31:35;;;;;;;0.73;0.70;;;;;;;;;;5045648;28;20028;-67
2022/11/20 10:34:03;;;;;;;1.60;0.50;;;;;;;;;;5048580;28;20032;-68
2022/11/20 10:36:34;;;;;;;0.93;0.80;;;;;;;;;;5038296;28;20021;-68
2022/11/20 10:39:04;;;;;;;0.50;0.50;;;;;;;;;;5052405;28;20174;-68
2022/11/20 10:41:30;;;;;;;;;;;;;;;;;;5040141;28;20192;-68
2022/11/20 10:44:02;;;;;;;1.55;0.88;;;;;;;;;;5048110;28;20393;-67
2022/11/20 10:46:32;;;;;;;2.28;0.75;;;;;;;;;;5043267;28;20051;-67
2022/11/20 10:48:58;;;;;;;1.55;1.20;;;;;;;;;;5058430;28;20041;-68
2022/11/20 10:51:32;;;;;;;1.85;1.05;;;;;;;;;;5046100;28;20035;-66
2022/11/20 10:53:58;;;;;;;1.85;0.82;;;;;;;;;;5052794;28;20086;-66
2022/11/20 10:56:31;;;;;;;1.52;0.77;;;;;;;;;;5045670;28;20021;-66
2022/11/20 10:59:11;;;;;;;2.75;0.93;;;;;;;;;;5046331;28;20059;-66
2022/11/20 11:01:43;;;;;;;1.58;0.93;;;;;;;;;;5047961;28;20017;-67
2022/11/20 11:04:19;;;;;;;1.13;0.82;;;;;;;;;;5046233;28;20309;-68
2022/11/20 11:06:49;;;;;;;0.95;0.93;;;;;;;;;;5050775;28;20072;-66
2022/11/20 11:09:21;;;;;;;0.93;0.80;;;;;;;;;;5050678;28;20028;-65
2022/11/20 11:11:47;;;;;;;3.83;1.08;;;;;;;;;;5051608;28;20158;-68
2022/11/20 11:14:15;;;;;;;1.67;1.45;;;;;;;;;;5050893;28;20047;-68
2022/11/20 11:16:50;;;;;;;2.50;1.40;;;;;;;;;;5059529;28;20021;-68
2022/11/20 11:19:17;;;;;;;1.42;1.20;;;;;;;;;;5059498;28;20083;-68
2022/11/20 11:21:54;;;;;;;2.42;1.33;;;;;;;;;;5062265;28;20028;-68
2022/11/20 11:24:27;;;;;;;2.60;1.00;;;;;;;;;;5058970;28;20498;-68
2022/11/20 11:27:05;;;;;;;3.63;1.45;;;;;;;;;;5058648;28;20385;-68
2022/11/20 11:29:31;;;;;;;3.63;1.60;;;;;;;;;;5054704;28;20488;-67
2022/11/20 11:32:07;;;;;;;2.65;1.90;;;;;;;;;;5052429;28;20429;-68
2022/11/20 11:34:33;;;;;;;3.80;2.13;;;;;;;;;;5046894;28;20467;-67
2022/11/20 11:37:01;;;;;;;3.92;2.00;;;;;;;;;;5044345;28;20033;-68
2022/11/20 11:39:28;;;;;;;2.05;1.60;;;;;;;;;;5058908;28;20072;-68
2022/11/20 11:41:55;;;;;;;3.38;1.30;;;;;;;;;;5044012;28;20021;-67
2022/11/20 11:47:24;;;;;;;1.85;1.38;;;;;;;;;;5052082;28;20183;-67
2022/11/20 11:50:01;;;;;;;4.47;1.67;;;;;;;;;;5038682;28;20021;-68
2022/11/20 11:52:28;;;;;;;4.82;1.75;;;;;;;;;;5052397;28;20039;-67
2022/11/20 11:54:56;;;;;;;3.45;1.63;;;;;;;;;;5044967;28;20034;-67
2022/11/20 11:57:40;;;;;;;2.75;1.48;;;;;;;;;;5052139;28;20053;-68
2022/11/20 12:00:13;;;;;;;3.95;1.52;;;;;;;;;;5046208;28;20705;-68
2022/11/20 12:02:48;;;;;;;4.20;2.03;;;;;;;;;;5056731;28;20024;-67
2022/11/20 12:05:20;;;;;;;3.63;1.38;;;;;;;;;;5040129;28;20029;-67
2022/11/20 12:07:47;;;;;;;7.22;1.80;;;;;;;;;;5051047;28;20096;-67
2022/11/20 12:10:22;;;;;;;1.80;1.40;;;;;;;;;;5048323;28;20102;-68
2022/11/20 12:12:53;;;;;;;4.47;1.55;;;;;;;;;;5050054;28;20024;-68
2022/11/20 12:15:34;;;;;;;2.78;1.10;;;;;;;;;;5049943;28;20088;-67
2022/11/20 12:18:00;;;;;;;2.42;0.90;;;;;;;;;;5050658;28;20020;-68
2022/11/20 12:20:29;;;;;;;1.55;1.10;;;;;;;;;;5050132;28;20032;-68
2022/11/20 12:23:25;;;;;;;4.32;1.10;;;;;;;;;;5049554;28;20061;-68
2022/11/20 12:25:54;;;;;;;5.97;1.30;;;;;;;;;;5024436;28;20401;-68
2022/11/20 12:28:28;;;;;;;2.95;0.88;;;;;;;;;;5050891;28;20112;-68
2022/11/20 12:31:09;;;;;;;2.00;0.93;;;;;;;;;;5037480;28;20060;-68
2022/11/20 12:33:48;;;;;;;1.35;0.98;;;;;;;;;;5051585;28;20029;-67
2022/11/20 12:36:23;;;;;;;2.55;0.82;;;;;;;;;;5039845;28;20029;-67
2022/11/20 12:38:58;;;;;;;1.50;0.60;;;;;;;;;;5041111;28;20457;-68
2022/11/20 12:47:34;;;;;;;2.00;0.75;;;;;;;;;;5050897;28;20028;-69
2022/11/20 12:50:09;;;;;;;1.55;0.50;;;;;;;;;;5023709;28;20434;-69
2022/11/20 12:52:38;;;;;;;2.67;1.00;;;;;;;;;;5033200;28;20173;-69
2022/11/20 12:55:17;;;;;;;1.50;0.82;;;;;;;;;;5042301;28;20655;-69
2022/11/20 12:57:58;;;;;;;1.75;0.90;;;;;;;;;;5049387;28;20078;-69
2022/11/20 13:00:25;;;;;;;3.28;1.00;;;;;;;;;;5044677;28;20033;-69
2022/11/20 13:03:00;;;;;;;4.55;0.47;;;;;;;;;;5049659;28;20235;-68
2022/11/20 13:05:45;;;;;;;2.17;0.60;;;;;;;;;;5035370;28;20088;-69
2022/11/20 13:08:19;;;;;;;1.52;0.57;;;;;;;;;;5038980;28;20096;-69
2022/11/20 13:11:06;;;;;;;2.35;0.80;;;;;;;;;;4998452;28;1098625;-70
2022/11/20 13:13:44;;;;;;;2.03;0.65;;;;;;;;;;5050932;28;20030;-69
2022/11/20 13:16:17;;;;;;;1.67;0.50;;;;;;;;;;5038241;28;20037;-75
2022/11/20 13:18:45;;;;;;;1.30;0.50;;;;;;;;;;5042595;28;20017;-70
2022/11/20 13:21:19;;;;;;;0.80;0.57;;;;;;;;;;5040628;28;20032;-71
2022/11/20 13:23:45;;;;;;;2.30;0.70;;;;;;;;;;5046268;28;20040;-76
2022/11/20 13:26:19;;;;;;;1.33;0.52;;;;;;;;;;5040005;28;20061;-76
2022/11/20 13:28:46;;;;;;;4.78;0.50;;;;;;;;;;5044342;28;20658;-77
2022/11/20 13:31:45;;;;;;;4.90;1.20;;;;;;;;;;5044075;28;20063;-79
2022/11/20 13:34:13;;;;;;;0.30;0.25;;;;;;;;;;4998830;28;20035;-79
2022/11/20 13:36:49;;;;;;;1.77;0.60;;;;;;;;;;5044429;28;20045;-79
2022/11/20 13:39:24;;;;;;;1.60;0.50;;;;;;;;;;5042121;28;20534;-78
2022/11/20 13:41:57;;;;;;;1.90;0.80;;;;;;;;;;5042277;28;20033;-77
2022/11/20 13:44:34;;;;;;;2.80;0.75;;;;;;;;;;5045401;28;20059;-78
2022/11/20 13:47:00;;;;;;;1.38;0.47;;;;;;;;;;5040934;28;20083;-79
2022/11/20 13:49:29;;;;;;;1.85;0.65;;;;;;;;;;5043687;28;20025;-78
2022/11/20 13:52:15;;;;;;;1.77;0.60;;;;;;;;;;5041780;28;20330;-76
2022/11/20 13:54:58;;;;;;;2.78;0.80;;;;;;;;;;5040299;28;20036;-71
2022/11/20 13:58:00;;;;;;;5.28;0.60;;;;;;;;;;5045430;28;20657;-77
2022/11/20 14:00:26;;;;;;;3.63;1.27;;;;;;;;;;4986141;28;20134;-74
2022/11/20 14:03:14;;;;;;;2.33;0.68;;;;;;;;;;5029801;28;20500;-76
2022/11/20 14:05:48;;;;;;;1.13;0.65;;;;;;;;;;5041713;28;20037;-75
2022/11/20 14:08:18;;;;;;;2.90;0.70;;;;;;;;;;5025564;28;20021;-76
2022/11/20 14:10:44;;;;;;;1.67;0.50;;;;;;;;;;5041892;28;21457;-75
2022/11/20 14:13:11;;;;;;;0.70;0.60;;;;;;;;;;5036630;28;20033;-75
2022/11/20 14:15:40;;;;;;;2.78;0.68;;;;;;;;;;5041111;28;20029;-76
2022/11/20 14:18:20;;;;;;;3.05;1.08;;;;;;;;;;5038268;28;20017;-75
2022/11/20 14:20:46;;;;;;;6.53;0.70;;;;;;;;;;5042998;28;20068;-75
2022/11/20 14:23:12;;;;;;;3.88;0.98;;;;;;;;;;5038253;28;20107;-75
2022/11/20 14:25:42;;;;;;;1.33;0.80;;;;;;;;;;5044229;28;20389;-75
2022/11/20 14:28:11;;;;;;;2.58;0.90;;;;;;;;;;5039248;28;20026;-75
2022/11/20 14:30:40;;;;;;;4.63;1.10;;;;;;;;;;5040407;28;20388;-75
2022/11/20 14:33:06;;;;;;;4.45;1.48;;;;;;;;;;5042668;28;20414;-73
2022/11/20 14:35:37;;;;;;;1.73;1.00;;;;;;;;;;5042356;28;20040;-73
2022/11/20 14:38:04;;;;;;;2.33;1.05;;;;;;;;;;5042658;28;20021;-73
2022/11/20 14:40:31;;;;;;;2.97;1.35;;;;;;;;;;5041711;28;21437;-74
2022/11/20 14:42:59;;;;;;;3.13;1.10;;;;;;;;;;5036251;28;21230;-73
2022/11/20 14:45:25;;;;;;;5.10;1.20;;;;;;;;;;5042464;28;20032;-74
2022/11/20 14:47:56;;;;;;;6.53;2.75;;;;;;;;;;5039902;28;20362;-73
2022/11/20 14:50:28;;;;;;;3.90;1.27;;;;;;;;;;5043066;28;20021;-75
2022/11/20 14:52:55;;;;;;;3.53;1.20;;;;;;;;;;5041394;28;20386;-73
2022/11/20 14:55:29;;;;;;;2.55;1.25;;;;;;;;;;5041601;28;20086;-73
2022/11/20 14:57:56;;;;;;;4.53;1.27;;;;;;;;;;5041250;28;20060;-72
2022/11/20 15:00:22;;;;;;;3.08;1.00;;;;;;;;;;5045022;28;20052;-73
2022/11/20 15:02:49;;;;;;;3.65;0.93;;;;;;;;;;5041628;28;20052;-71
2022/11/20 15:05:17;;;;;;;0.90;0.80;;;;;;;;;;5042169;28;20551;-73
2022/11/20 15:07:48;;;;;;;3.60;1.13;;;;;;;;;;5040193;28;20033;-73